Pagina principale
METAR-TAF:

METAR-TAF

Aeroporti :

Aeroporto di Crotone

Crotone, Italia

latitudine: 39-00N, longitudine: 017-04E, altezza: 155 m

Osservazione

Il bollettino è stato emesso 9 ore e 0 minuti fa, alle 18:50 UTC
Vento 4 kt da ovest/sud-ovest
Temperature 10°C
Umidità 93%
Pressione 1024 hPa
Visibilità 10 km o più
nessuna nube inferiore a 1500 m e nessun cumulonembo

METAR: LIBC 261850Z 25004KT CAVOK 10/09 Q1024

Ora: 04:50 (03:50 UTC)

Previsione

Il bollettino è stato emesso 10 ore e 50 minuti fa, alle 17:00 UTC
Previsione valida dal 26 alle 18 UTC al 27 alle 18 UTC
Vento 10 kt da sud/sud-est
Visibilità 10 km o più
nessuna nube inferiore a 1500 m e nessun cumulonembo
Evoluzione graduale
dal 26 alle 18 UTC al 26 alle 20 UTC
Vento 5 kt da direzioni variabili

TAF: LIBC 261700Z 2618/2718 16010KT CAVOK BECMG 2618/2620 VRB05KT

Osservazioni e previsioni meteorologiche di più di 4000 aeroporti (messaggi METAR e TAF).

Le stazioni disponibili sono rappresentate dai dischi gialli e rossi sulla carta.

Puntare il mouse per vedere il nome della stazione.

Clicca sopra per visualizzare le osservazioni e previsioni meteorologiche.

Per cambiare la mappa : fare clic sui pulsanti verdi con una croce nera per ingrandire, il pulsante verde con un trattino per diminuire, o sulla freccia verde per le mappe adiacenti.


METAR-TAF: